| time (UTC) | temp C | wind direction | speed KPH | gust KPH | rain 1hr cm | rain 24hr cm | rain mn cm | humidity % | barometer mb |
| 20260508162928 | 19 | 5 | 8.0 | 17.7 | 0.00 | 0.00 | 0.00 | 67 | 1015.3 |
| 20260508162427 | 20 | 319 | 8.0 | 16.1 | 0.00 | 0.00 | 0.00 | 67 | 1015.2 |
| 20260508161927 | 20 | 338 | 9.7 | 17.7 | 0.00 | 0.00 | 0.00 | 67 | 1015.2 |
| 20260508161425 | 20 | 348 | 9.7 | 22.5 | 0.00 | 0.00 | 0.00 | 66 | 1015.2 |
| 20260508160920 | 20 | 325 | 12.9 | 22.5 | 0.00 | 0.00 | 0.00 | 65 | 1015.2 |
| 20260508155422 | 20 | 337 | 8.0 | 19.3 | 0.00 | 0.00 | 0.00 | 63 | 1015.1 |
| 20260508154914 | 21 | 42 | 9.7 | 19.3 | 0.00 | 0.00 | 0.00 | 62 | 1015.0 |
| 20260508154420 | 21 | 333 | 9.7 | 17.7 | 0.00 | 0.00 | 0.00 | 61 | 1015.0 |
| 20260508153911 | 21 | 340 | 9.7 | 17.7 | 0.00 | 0.00 | 0.00 | 61 | 1015.1 |
| 20260508153420 | 21 | 0 | 9.7 | 20.9 | 0.00 | 0.00 | 0.00 | 60 | 1015.1 |
| 20260508152901 | 21 | 302 | 6.4 | 20.9 | 0.00 | 0.00 | 0.00 | 59 | 1015.0 |
| 20260508152432 | 21 | 24 | 6.4 | 17.7 | 0.00 | 0.00 | 0.00 | 59 | 1015.0 |
| 20260508151413 | 22 | 338 | 8.0 | 19.3 | 0.00 | 0.00 | 0.00 | 58 | 1015.0 |
| 20260508150903 | 22 | 15 | 8.0 | 19.3 | 0.00 | 0.00 | 0.00 | 58 | 1014.9 |
| 20260508150412 | 22 | 323 | 9.7 | 20.9 | 0.00 | 0.00 | 0.00 | 57 | 1015.0 |
| 20260508145857 | 22 | 342 | 9.7 | 20.9 | 0.00 | 0.00 | 0.00 | 57 | 1015.0 |
| 20260508145413 | 22 | 348 | 6.4 | 20.9 | 0.00 | 0.00 | 0.00 | 57 | 1014.9 |
| 20260508144852 | 22 | 15 | 6.4 | 16.1 | 0.00 | 0.00 | 0.00 | 57 | 1014.8 |
| 20260508143845 | 22 | 5 | 8.0 | 17.7 | 0.00 | 0.00 | 0.00 | 57 | 1014.9 |
| 20260508143408 | 23 | 12 | 6.4 | 14.5 | 0.00 | 0.00 | 0.00 | 57 | 1014.8 |
| 20260508142406 | 23 | 16 | 8.0 | 17.7 | 0.00 | 0.00 | 0.00 | 56 | 1014.8 |
| 20260508141846 | 23 | 340 | 8.0 | 16.1 | 0.00 | 0.00 | 0.00 | 56 | 1014.8 |
| 20260508141403 | 23 | 338 | 8.0 | 17.7 | 0.00 | 0.00 | 0.00 | 56 | 1014.8 |
| 20260508140405 | 23 | 355 | 6.4 | 14.5 | 0.00 | 0.00 | 0.00 | 56 | 1014.7 |
| 20260508135843 | 23 | 347 | 6.4 | 14.5 | 0.00 | 0.00 | 0.00 | 56 | 1014.8 |
| 20260508135406 | 23 | 303 | 8.0 | 17.7 | 0.00 | 0.00 | 0.00 | 56 | 1014.8 |
| 20260508134832 | 23 | 0 | 8.0 | 17.7 | 0.00 | 0.00 | 0.00 | 56 | 1014.8 |
| 20260508133356 | 24 | 0 | 8.0 | 19.3 | 0.00 | 0.00 | 0.00 | 56 | 1014.9 |
| 20260508132352 | 24 | 5 | 8.0 | 16.1 | 0.00 | 0.00 | 0.00 | 56 | 1014.8 |
| 20260508131353 | 24 | 0 | 8.0 | 17.7 | 0.00 | 0.00 | 0.00 | 55 | 1014.8 |
| 20260508130840 | 24 | 40 | 8.0 | 17.7 | 0.00 | 0.00 | 0.00 | 55 | 1014.8 |
| 20260508130352 | 24 | 19 | 8.0 | 19.3 | 0.00 | 0.00 | 0.00 | 54 | 1014.9 |
| 20260508125831 | 25 | 346 | 8.0 | 19.3 | 0.00 | 0.00 | 0.00 | 54 | 1014.9 |
| 20260508125347 | 25 | 305 | 9.7 | 20.9 | 0.00 | 0.00 | 0.00 | 54 | 1015.0 |
| 20260508124826 | 25 | 355 | 9.7 | 20.9 | 0.00 | 0.00 | 0.00 | 53 | 1015.0 |
| 20260508124346 | 25 | 355 | 8.0 | 16.1 | 0.00 | 0.00 | 0.00 | 53 | 1015.0 |
| 20260508123821 | 25 | 351 | 8.0 | 17.7 | 0.00 | 0.00 | 0.00 | 53 | 1015.0 |
| 20260508123343 | 25 | 355 | 8.0 | 17.7 | 0.00 | 0.00 | 0.00 | 53 | 1015.2 |
| 20260508122821 | 25 | 310 | 6.4 | 16.1 | 0.00 | 0.00 | 0.00 | 52 | 1015.2 |
| 20260508122344 | 25 | 306 | 6.4 | 20.9 | 0.00 | 0.00 | 0.00 | 50 | 1015.2 |
| 20260508121823 | 25 | 5 | 6.4 | 20.9 | 0.00 | 0.00 | 0.00 | 50 | 1015.2 |
| 20260508121340 | 25 | 262 | 6.4 | 16.1 | 0.00 | 0.00 | 0.00 | 49 | 1015.1 |
| 20260508120813 | 25 | 332 | 6.4 | 17.7 | 0.00 | 0.00 | 0.00 | 49 | 1015.2 |
| 20260508115814 | 25 | 286 | 6.4 | 17.7 | 0.00 | 0.00 | 0.00 | 48 | 1015.3 |
| 20260508115337 | 25 | 263 | 6.4 | 17.7 | 0.00 | 0.00 | 0.00 | 45 | 1015.3 |
| 20260508114812 | 26 | 27 | 1.6 | 12.9 | 0.00 | 0.00 | 0.00 | 43 | 1015.3 |
| 20260508114336 | 26 | 275 | 0.0 | 8.0 | 0.00 | 0.00 | 0.00 | 39 | 1015.4 |
| 20260508113813 | 26 | 17 | 0.0 | 8.0 | 0.00 | 0.00 | 0.00 | 39 | 1015.5 |
| 20260508113332 | 26 | 318 | 0.0 | 4.8 | 0.00 | 0.00 | 0.00 | 37 | 1015.7 |
| 20260508112811 | 25 | 110 | 0.0 | 6.4 | 0.00 | 0.00 | 0.00 | 34 | 1015.7 |
| 20260508112329 | 25 | 181 | 0.0 | 6.4 | 0.00 | 0.00 | 0.00 | 34 | 1015.8 |
| 20260508111811 | 25 | 227 | 1.6 | 6.4 | 0.00 | 0.00 | 0.00 | 33 | 1015.8 |
| 20260508111329 | 25 | 119 | 3.2 | 12.9 | 0.00 | 0.00 | 0.00 | 33 | 1015.8 |
| 20260508110815 | 25 | 142 | 3.2 | 12.9 | 0.00 | 0.00 | 0.00 | 33 | 1015.8 |
| 20260508110327 | 25 | 137 | 1.6 | 8.0 | 0.00 | 0.00 | 0.00 | 32 | 1015.8 |
| 20260508105805 | 26 | 126 | 1.6 | 8.0 | 0.00 | 0.00 | 0.00 | 32 | 1015.8 |
| 20260508104324 | 25 | 187 | 1.6 | 8.0 | 0.00 | 0.00 | 0.00 | 31 | 1015.8 |
| 20260508103807 | 25 | 224 | 1.6 | 8.0 | 0.00 | 0.00 | 0.00 | 31 | 1015.9 |
| 20260508103324 | 25 | 219 | 1.6 | 8.0 | 0.00 | 0.00 | 0.00 | 31 | 1016.0 |
| 20260508102802 | 25 | 134 | 1.6 | 6.4 | 0.00 | 0.00 | 0.00 | 32 | 1015.9 |
| 20260508102319 | 24 | 152 | 1.6 | 8.0 | 0.00 | 0.00 | 0.00 | 31 | 1016.0 |
| 20260508101318 | 25 | 162 | 1.6 | 11.3 | 0.00 | 0.00 | 0.00 | 32 | 1016.1 |
| 20260508100800 | 24 | 217 | 1.6 | 8.0 | 0.00 | 0.00 | 0.00 | 31 | 1016.2 |
| 20260508100317 | 24 | 126 | 1.6 | 8.0 | 0.00 | 0.00 | 0.00 | 32 | 1016.2 |
| 20260508095759 | 24 | 126 | 1.6 | 8.0 | 0.00 | 0.00 | 0.00 | 31 | 1016.2 |
| 20260508095318 | 23 | 202 | 1.6 | 8.0 | 0.00 | 0.00 | 0.00 | 33 | 1016.1 |
| 20260508094752 | 23 | 203 | 1.6 | 9.7 | 0.00 | 0.00 | 0.00 | 32 | 1016.2 |
| 20260508094313 | 23 | 136 | 1.6 | 9.7 | 0.00 | 0.00 | 0.00 | 32 | 1016.3 |
| 20260508093754 | 23 | 134 | 1.6 | 9.7 | 0.00 | 0.00 | 0.00 | 33 | 1016.3 |
| 20260508093310 | 23 | 0 | 1.6 | 9.7 | 0.00 | 0.00 | 0.00 | 31 | 1016.4 |
| 20260508092313 | 23 | 101 | 3.2 | 8.0 | 0.00 | 0.00 | 0.00 | 33 | 1016.6 |
| 20260508091753 | 23 | 171 | 1.6 | 8.0 | 0.00 | 0.00 | 0.00 | 34 | 1016.5 |
| 20260508091304 | 23 | 144 | 1.6 | 8.0 | 0.00 | 0.00 | 0.00 | 34 | 1016.4 |
| 20260508090302 | 23 | 34 | 1.6 | 9.7 | 0.00 | 0.00 | 0.00 | 34 | 1016.5 |
| 20260508085753 | 22 | 5 | 3.2 | 11.3 | 0.00 | 0.00 | 0.00 | 33 | 1016.7 |
| 20260508085301 | 22 | 144 | 3.2 | 11.3 | 0.00 | 0.00 | 0.00 | 32 | 1016.7 |
| 20260508084752 | 22 | 134 | 1.6 | 9.7 | 0.00 | 0.00 | 0.00 | 33 | 1016.7 |
| 20260508084300 | 22 | 132 | 3.2 | 11.3 | 0.00 | 0.00 | 0.00 | 33 | 1016.6 |
| 20260508083746 | 22 | 154 | 3.2 | 11.3 | 0.00 | 0.00 | 0.00 | 34 | 1016.7 |
| 20260508083257 | 22 | 132 | 1.6 | 8.0 | 0.00 | 0.00 | 0.00 | 32 | 1016.7 |
| 20260508082743 | 22 | 157 | 1.6 | 8.0 | 0.00 | 0.00 | 0.00 | 32 | 1016.8 |
| 20260508082255 | 22 | 121 | 1.6 | 6.4 | 0.00 | 0.00 | 0.00 | 31 | 1016.8 |
| 20260508081744 | 22 | 130 | 1.6 | 9.7 | 0.00 | 0.00 | 0.00 | 39 | 1016.8 |
| 20260508081255 | 22 | 114 | 1.6 | 9.7 | 0.00 | 0.00 | 0.00 | 42 | 1016.8 |
| 20260508080742 | 22 | 186 | 1.6 | 6.4 | 0.00 | 0.00 | 0.00 | 43 | 1016.8 |
| 20260508080252 | 22 | 141 | 1.6 | 8.0 | 0.00 | 0.00 | 0.00 | 44 | 1016.8 |
| 20260508075741 | 22 | 130 | 1.6 | 11.3 | 0.00 | 0.00 | 0.00 | 44 | 1016.9 |
| 20260508074736 | 22 | 151 | 1.6 | 6.4 | 0.00 | 0.00 | 0.00 | 46 | 1016.9 |
| 20260508074251 | 21 | 136 | 1.6 | 6.4 | 0.00 | 0.00 | 0.00 | 46 | 1016.9 |
| 20260508073737 | 21 | 132 | 0.0 | 3.2 | 0.00 | 0.00 | 0.00 | 47 | 1016.9 |
| 20260508073250 | 21 | 260 | 0.0 | 6.4 | 0.00 | 0.00 | 0.00 | 50 | 1016.8 |
| 20260508072736 | 21 | 278 | 0.0 | 6.4 | 0.00 | 0.00 | 0.00 | 48 | 1016.9 |
| 20260508072244 | 21 | 205 | 1.6 | 4.8 | 0.00 | 0.00 | 0.00 | 47 | 1016.8 |
| 20260508071731 | 20 | 205 | 1.6 | 6.4 | 0.00 | 0.00 | 0.00 | 49 | 1016.8 |
| 20260508071242 | 20 | 155 | 1.6 | 8.0 | 0.00 | 0.00 | 0.00 | 48 | 1016.8 |
| 20260508065730 | 20 | 138 | 1.6 | 6.4 | 0.00 | 0.00 | 0.00 | 55 | 1016.5 |
| 20260508065242 | 20 | 142 | 0.0 | 6.4 | 0.00 | 0.00 | 0.00 | 56 | 1016.6 |
| 20260508064236 | 20 | 290 | 1.6 | 4.8 | 0.00 | 0.00 | 0.00 | 59 | 1016.6 |
| 20260508063729 | 19 | 277 | 1.6 | 4.8 | 0.00 | 0.00 | 0.00 | 59 | 1016.8 |
| 20260508063238 | 19 | 279 | 1.6 | 4.8 | 0.00 | 0.00 | 0.00 | 62 | 1016.8 |
| 20260508062731 | 18 | 279 | 1.6 | 4.8 | 0.00 | 0.00 | 0.00 | 62 | 1016.6 |
| 20260508062237 | 18 | 323 | 1.6 | 4.8 | 0.00 | 0.00 | 0.00 | 65 | 1016.8 |
| 20260508061728 | 18 | 323 | 0.0 | 4.8 | 0.00 | 0.00 | 0.00 | 67 | 1016.8 |
| 20260508060728 | 17 | 329 | 1.6 | 6.4 | 0.00 | 0.00 | 0.00 | 67 | 1016.8 |
| 20260508055722 | 17 | 0 | 1.6 | 6.4 | 0.00 | 0.00 | 0.00 | 70 | 1016.7 |
| 20260508055230 | 16 | 314 | 3.2 | 8.0 | 0.00 | 0.00 | 0.00 | 71 | 1016.6 |
| 20260508054720 | 16 | 345 | 3.2 | 8.0 | 0.00 | 0.00 | 0.00 | 71 | 1016.8 |
| 20260508054231 | 15 | 284 | 3.2 | 8.0 | 0.00 | 0.00 | 0.00 | 72 | 1016.7 |
| 20260508053718 | 15 | 355 | 3.2 | 8.0 | 0.00 | 0.00 | 0.00 | 74 | 1016.8 |
| 20260508053224 | 15 | 0 | 3.2 | 9.7 | 0.00 | 0.00 | 0.00 | 76 | 1016.8 |
| 20260508052712 | 15 | 323 | 3.2 | 9.7 | 0.00 | 0.00 | 0.00 | 79 | 1016.7 |
| 20260508052221 | 14 | 0 | 4.8 | 14.5 | 0.00 | 0.00 | 0.00 | 81 | 1016.7 |
| 20260508050711 | 13 | 301 | 1.6 | 8.0 | 0.00 | 0.00 | 0.00 | 89 | 1016.5 |
| 20260508050219 | 13 | 325 | 0.0 | 4.8 | 0.00 | 0.00 | 0.00 | 90 | 1016.5 |
| 20260508045711 | 13 | 336 | 0.0 | 3.2 | 0.00 | 0.00 | 0.00 | 91 | 1016.5 |
| 20260508045217 | 13 | 337 | 0.0 | 3.2 | 0.00 | 0.00 | 0.00 | 91 | 1016.5 |
| 20260508044707 | 13 | 338 | 0.0 | 3.2 | 0.00 | 0.00 | 0.00 | 91 | 1016.3 |
| 20260508044213 | 13 | 337 | 0.0 | 3.2 | 0.00 | 0.00 | 0.00 | 91 | 1016.4 |
| 20260508043704 | 13 | 338 | 0.0 | 3.2 | 0.00 | 0.00 | 0.00 | 91 | 1016.4 |
| 20260508042213 | 12 | 338 | 0.0 | 3.2 | 0.00 | 0.00 | 0.00 | 93 | 1016.3 |
| 20260508041659 | 12 | 338 | 0.0 | 3.2 | 0.00 | 0.00 | 0.00 | 92 | 1016.4 |
| 20260508041210 | 11 | 338 | 0.0 | 3.2 | 0.00 | 0.00 | 0.00 | 91 | 1016.3 |
| 20260508040700 | 11 | 338 | 0.0 | 3.2 | 0.00 | 0.00 | 0.00 | 92 | 1016.2 |
| 20260508040211 | 11 | 338 | 0.0 | 3.2 | 0.00 | 0.00 | 0.00 | 92 | 1016.2 |
| 20260508035700 | 11 | 338 | 0.0 | 3.2 | 0.00 | 0.00 | 0.00 | 92 | 1016.2 |
| 20260508035204 | 11 | 338 | 0.0 | 3.2 | 0.00 | 0.00 | 0.00 | 92 | 1016.2 |
| 20260508034701 | 10 | 338 | 0.0 | 1.6 | 0.00 | 0.00 | 0.00 | 92 | 1016.2 |
| 20260508034202 | 10 | 338 | 0.0 | 1.6 | 0.00 | 0.00 | 0.00 | 91 | 1016.1 |
| 20260508033650 | 10 | 338 | 0.0 | 0.0 | 0.00 | 0.00 | 0.00 | 91 | 1016.0 |
| 20260508033201 | 10 | 338 | 0.0 | 1.6 | 0.00 | 0.00 | 0.00 | 91 | 1016.0 |
| 20260508032645 | 10 | 338 | 0.0 | 3.2 | 0.00 | 0.00 | 0.00 | 91 | 1016.1 |
| 20260508032201 | 10 | 338 | 0.0 | 3.2 | 0.00 | 0.00 | 0.00 | 91 | 1015.9 |
| 20260508031645 | 10 | 338 | 0.0 | 0.0 | 0.00 | 0.00 | 0.00 | 92 | 1016.0 |
| 20260508031156 | 10 | 338 | 0.0 | 0.0 | 0.00 | 0.00 | 0.00 | 91 | 1016.0 |
| 20260508030642 | 10 | 338 | 0.0 | 1.6 | 0.00 | 0.00 | 0.00 | 91 | 1015.9 |
| 20260508030155 | 10 | 338 | 0.0 | 1.6 | 0.00 | 0.00 | 0.00 | 91 | 1015.8 |
| 20260508025634 | 10 | 338 | 0.0 | 1.6 | 0.00 | 0.00 | 0.00 | 91 | 1015.8 |
| 20260508025152 | 10 | 338 | 0.0 | 1.6 | 0.00 | 0.00 | 0.00 | 91 | 1015.7 |
| 20260508024631 | 10 | 338 | 0.0 | 1.6 | 0.00 | 0.00 | 0.00 | 91 | 1015.5 |
| 20260508024151 | 10 | 338 | 0.0 | 1.6 | 0.00 | 0.00 | 0.00 | 91 | 1015.5 |
| 20260508023626 | 10 | 338 | 0.0 | 3.2 | 0.00 | 0.00 | 0.00 | 91 | 1015.4 |
| 20260508022610 | 10 | 338 | 0.0 | 3.2 | 0.00 | 0.00 | 0.00 | 90 | 1015.2 |
| 20260508022147 | 10 | 338 | 0.0 | 1.6 | 0.00 | 0.00 | 0.00 | 91 | 1015.3 |
| 20260508021603 | 10 | 338 | 0.0 | 0.0 | 0.00 | 0.00 | 0.00 | 91 | 1015.1 |
| 20260508021143 | 10 | 338 | 0.0 | 0.0 | 0.00 | 0.00 | 0.00 | 91 | 1015.1 |
| 20260508020559 | 10 | 338 | 0.0 | 3.2 | 0.00 | 0.00 | 0.00 | 91 | 1015.2 |
| 20260508020140 | 10 | 338 | 0.0 | 3.2 | 0.00 | 0.00 | 0.00 | 90 | 1015.1 |
| 20260508015600 | 10 | 338 | 0.0 | 3.2 | 0.00 | 0.00 | 0.00 | 90 | 1015.2 |
| 20260508015141 | 10 | 338 | 0.0 | 3.2 | 0.00 | 0.00 | 0.00 | 90 | 1015.3 |
| 20260508014603 | 10 | 338 | 0.0 | 4.8 | 0.00 | 0.00 | 0.00 | 90 | 1015.2 |
| 20260508013556 | 11 | 338 | 1.6 | 4.8 | 0.00 | 0.00 | 0.00 | 90 | 1015.3 |
| 20260508013134 | 11 | 338 | 1.6 | 6.4 | 0.00 | 0.00 | 0.00 | 90 | 1015.3 |
| 20260508012558 | 11 | 338 | 1.6 | 6.4 | 0.00 | 0.00 | 0.00 | 90 | 1015.4 |
| 20260508012129 | 11 | 336 | 1.6 | 4.8 | 0.00 | 0.00 | 0.00 | 90 | 1015.5 |
| 20260508011556 | 11 | 336 | 3.2 | 6.4 | 0.00 | 0.00 | 0.00 | 90 | 1015.5 |
| 20260508011132 | 11 | 336 | 3.2 | 6.4 | 0.00 | 0.00 | 0.00 | 89 | 1015.7 |
| 20260508010552 | 11 | 0.0 | 0.0 | 0.00 | 0.00 | 0.00 | 89 | 1015.8 | |
| 20260508010127 | 11 | 0.0 | 0.0 | 0.00 | 0.00 | 0.00 | 89 | 1015.8 | |
| 20260508005553 | 11 | 0.0 | 0.0 | 0.00 | 0.00 | 0.00 | 89 | 1015.8 | |
| 20260508005125 | 11 | 0.0 | 0.0 | 0.00 | 0.00 | 0.00 | 89 | 1015.9 | |
| 20260508004546 | 11 | 0.0 | 0.0 | 0.00 | 0.00 | 0.00 | 89 | 1015.9 | |
| 20260508003525 | 11 | 0.0 | 0.0 | 0.00 | 0.00 | 0.00 | 89 | 1016.0 | |
| 20260508003125 | 11 | 0.0 | 0.0 | 0.00 | 0.00 | 0.00 | 89 | 1015.9 | |
| 20260508002121 | 11 | 0.0 | 0.0 | 0.00 | 0.00 | 0.00 | 88 | 1015.9 | |
| 20260508001511 | 11 | 0.0 | 0.0 | 0.00 | 0.00 | 0.00 | 88 | 1015.9 | |
| 20260508001119 | 11 | 0.0 | 0.0 | 0.00 | 0.00 | 0.00 | 88 | 1015.9 | |
| 20260508000508 | 11 | 0.0 | 0.0 | 0.00 | 0.00 | 0.00 | 88 | 1015.9 | |
| 20260508000115 | 11 | 0.0 | 0.0 | 0.00 | 0.00 | 0.00 | 88 | 1016.0 | |
| 20260507235114 | 11 | 0.0 | 0.0 | 0.00 | 0.00 | 0.00 | 87 | 1016.1 | |
| 20260507234458 | 11 | 0.0 | 0.0 | 0.00 | 0.00 | 0.00 | 87 | 1016.2 | |
| 20260507234112 | 11 | 0.0 | 0.0 | 0.00 | 0.00 | 0.00 | 87 | 1016.3 | |
| 20260507233452 | 11 | 0.0 | 0.0 | 0.00 | 0.00 | 0.00 | 86 | 1016.3 | |
| 20260507233110 | 12 | 0.0 | 0.0 | 0.00 | 0.00 | 0.00 | 86 | 1016.2 | |
| 20260507232443 | 12 | 0.0 | 0.0 | 0.00 | 0.00 | 0.00 | 86 | 1016.2 | |
| 20260507232108 | 12 | 0.0 | 0.0 | 0.00 | 0.00 | 0.00 | 85 | 1016.2 | |
| 20260507231423 | 12 | 0.0 | 0.0 | 0.00 | 0.00 | 0.00 | 85 | 1016.1 | |
| 20260507231104 | 12 | 0.0 | 0.0 | 0.00 | 0.00 | 0.00 | 84 | 1016.3 | |
| 20260507230413 | 12 | 0.0 | 0.0 | 0.00 | 0.00 | 0.00 | 84 | 1016.4 | |
| 20260507230101 | 12 | 0.0 | 0.0 | 0.00 | 0.00 | 0.00 | 83 | 1016.4 | |
| 20260507225056 | 12 | 0.0 | 0.0 | 0.00 | 0.00 | 0.00 | 82 | 1016.5 | |
| 20260507224401 | 12 | 0.0 | 0.0 | 0.00 | 0.00 | 0.00 | 82 | 1016.5 | |
| 20260507224054 | 12 | 0.0 | 0.0 | 0.00 | 0.00 | 0.00 | 81 | 1016.5 | |
| 20260507222306 | 13 | 0.0 | 0.0 | 0.00 | 0.00 | 0.00 | 78 | 1016.6 | |
| 20260507222054 | 13 | 0.0 | 0.0 | 0.00 | 0.00 | 0.00 | 77 | 1016.7 | |
| 20260507221306 | 13 | 279 | 6.4 | 11.3 | 0.00 | 0.00 | 0.00 | 76 | 1016.7 |
| 20260507220048 | 13 | 297 | 4.8 | 11.3 | 0.00 | 0.00 | 0.00 | 73 | 1016.5 |
| 20260507215044 | 13 | 287 | 4.8 | 11.3 | 0.00 | 0.00 | 0.00 | 71 | 1016.5 |
| 20260507214301 | 13 | 282 | 4.8 | 11.3 | 0.00 | 0.00 | 0.00 | 70 | 1016.5 |
| 20260507214046 | 13 | 282 | 4.8 | 11.3 | 0.00 | 0.00 | 0.00 | 69 | 1016.4 |
| 20260507213258 | 13 | 295 | 6.4 | 14.5 | 0.00 | 0.00 | 0.00 | 68 | 1016.4 |
| 20260507213041 | 13 | 295 | 4.8 | 14.5 | 0.00 | 0.00 | 0.00 | 67 | 1016.4 |
| 20260507212039 | 13 | 349 | 4.8 | 8.0 | 0.00 | 0.00 | 0.00 | 68 | 1016.3 |
| 20260507211250 | 13 | 322 | 4.8 | 8.0 | 0.00 | 0.00 | 0.00 | 68 | 1016.2 |
| 20260507210245 | 13 | 331 | 3.2 | 8.0 | 0.00 | 0.00 | 0.00 | 69 | 1016.2 |
| 20260507205245 | 13 | 318 | 1.6 | 4.8 | 0.00 | 0.00 | 0.00 | 69 | 1016.1 |
| 20260507205040 | 13 | 317 | 1.6 | 4.8 | 0.00 | 0.00 | 0.00 | 69 | 1016.1 |
| 20260507204242 | 13 | 316 | 0.0 | 4.8 | 0.00 | 0.00 | 0.00 | 70 | 1016.1 |
| 20260507204031 | 13 | 316 | 1.6 | 6.4 | 0.00 | 0.00 | 0.00 | 70 | 1016.0 |
| 20260507203238 | 13 | 316 | 3.2 | 6.4 | 0.00 | 0.00 | 0.00 | 70 | 1016.0 |
| 20260507203031 | 13 | 315 | 3.2 | 6.4 | 0.00 | 0.00 | 0.00 | 70 | 1015.9 |
| 20260507202230 | 13 | 297 | 1.6 | 6.4 | 0.00 | 0.00 | 0.00 | 70 | 1016.0 |
| 20260507202030 | 13 | 336 | 3.2 | 6.4 | 0.00 | 0.00 | 0.00 | 70 | 1015.9 |
| 20260507201219 | 13 | 336 | 3.2 | 6.4 | 0.00 | 0.00 | 0.00 | 70 | 1015.9 |
| 20260507201029 | 13 | 336 | 3.2 | 6.4 | 0.00 | 0.00 | 0.00 | 70 | 1015.9 |
| 20260507200213 | 13 | 336 | 1.6 | 6.4 | 0.00 | 0.00 | 0.00 | 70 | 1015.9 |
| 20260507195708 | 13 | 355 | 1.6 | 4.8 | 0.00 | 0.00 | 0.00 | 70 | 1016.0 |
| 20260507194657 | 14 | 355 | 3.2 | 6.4 | 0.00 | 0.00 | 0.00 | 70 | 1015.9 |
| 20260507194159 | 14 | 324 | 1.6 | 6.4 | 0.00 | 0.00 | 0.00 | 70 | 1015.8 |
| 20260507193650 | 14 | 324 | 3.2 | 6.4 | 0.00 | 0.00 | 0.00 | 70 | 1016.0 |
| 20260507192644 | 14 | 324 | 3.2 | 6.4 | 0.00 | 0.00 | 0.00 | 69 | 1015.9 |
| 20260507192146 | 14 | 324 | 3.2 | 6.4 | 0.00 | 0.00 | 0.00 | 69 | 1015.9 |
| 20260507191147 | 14 | 339 | 6.4 | 12.9 | 0.00 | 0.00 | 0.00 | 69 | 1015.9 |
| 20260507190644 | 14 | 5 | 8.0 | 14.5 | 0.00 | 0.00 | 0.00 | 69 | 1015.8 |
| 20260507190142 | 14 | 19 | 8.0 | 14.5 | 0.00 | 0.00 | 0.00 | 69 | 1015.8 |
| 20260507185644 | 14 | 338 | 6.4 | 14.5 | 0.00 | 0.00 | 0.00 | 69 | 1015.9 |
| 20260507185141 | 14 | 327 | 6.4 | 14.5 | 0.00 | 0.00 | 0.00 | 69 | 1015.9 |
| 20260507184639 | 14 | 338 | 4.8 | 12.9 | 0.00 | 0.00 | 0.00 | 70 | 1015.9 |
| 20260507184135 | 14 | 329 | 3.2 | 14.5 | 0.00 | 0.00 | 0.00 | 70 | 1016.0 |
| 20260507183635 | 14 | 355 | 4.8 | 14.5 | 0.00 | 0.00 | 0.00 | 70 | 1016.0 |
| 20260507183137 | 14 | 333 | 4.8 | 12.9 | 0.00 | 0.00 | 0.00 | 70 | 1016.0 |
| 20260507182131 | 14 | 281 | 3.2 | 9.7 | 0.00 | 0.00 | 0.00 | 71 | 1016.0 |
| 20260507181627 | 14 | 302 | 4.8 | 12.9 | 0.00 | 0.00 | 0.00 | 70 | 1016.0 |
| 20260507181130 | 15 | 350 | 6.4 | 16.1 | 0.00 | 0.00 | 0.00 | 70 | 1015.9 |
| 20260507175627 | 15 | 11 | 6.4 | 12.9 | 0.00 | 0.00 | 0.00 | 70 | 1015.7 |
| 20260507175127 | 15 | 336 | 6.4 | 12.9 | 0.00 | 0.00 | 0.00 | 70 | 1015.8 |
| 20260507174621 | 15 | 324 | 6.4 | 17.7 | 0.00 | 0.00 | 0.00 | 69 | 1015.8 |
| 20260507174122 | 15 | 300 | 8.0 | 17.7 | 0.00 | 0.00 | 0.00 | 69 | 1015.7 |
| 20260507173622 | 15 | 326 | 9.7 | 19.3 | 0.00 | 0.00 | 0.00 | 69 | 1015.7 |
| 20260507173121 | 15 | 341 | 11.3 | 19.3 | 0.00 | 0.00 | 0.00 | 70 | 1015.7 |
| 20260507172625 | 15 | 355 | 9.7 | 19.3 | 0.00 | 0.00 | 0.00 | 70 | 1015.7 |
| 20260507171120 | 15 | 355 | 8.0 | 16.1 | 0.00 | 0.00 | 0.00 | 70 | 1015.4 |
| 20260507170621 | 15 | 10 | 9.7 | 19.3 | 0.00 | 0.00 | 0.00 | 71 | 1015.3 |
| 20260507170114 | 15 | 350 | 9.7 | 19.3 | 0.00 | 0.00 | 0.00 | 71 | 1015.3 |
| 20260507165615 | 15 | 317 | 9.7 | 17.7 | 0.00 | 0.00 | 0.00 | 71 | 1015.3 |
| 20260507165115 | 16 | 323 | 9.7 | 22.5 | 0.00 | 0.00 | 0.00 | 71 | 1015.3 |
| 20260507164611 | 16 | 343 | 9.7 | 22.5 | 0.00 | 0.00 | 0.00 | 71 | 1015.2 |
| 20260507164108 | 16 | 0 | 11.3 | 22.5 | 0.00 | 0.00 | 0.00 | 71 | 1015.1 |
| 20260507163610 | 16 | 344 | 12.9 | 22.5 | 0.00 | 0.00 | 0.00 | 70 | 1015.1 |